Time;durP1;ratioP1;P1;durP2;ratioP2;P2;SDS_P1;SDS_P2;PMS_P1;PMS_P2;Temp;Humidity;BMP_temperature;BMP_pressure;BME280_temperature;BME280_humidity;BME280_pressure;Samples;Min_cycle;Max_cycle;Signal;HPM_P1;HPM_P2
2022/07/24 00:00:34;;;;;;;10.05;6.72;;;16.60;99.90;;;;;;5062318;28;20059;-85
2022/07/24 00:03:00;;;;;;;7.03;6.35;;;16.70;99.90;;;;;;5096198;28;20048;-85
2022/07/24 00:05:25;;;;;;;7.57;6.60;;;16.60;99.90;;;;;;5095819;28;20051;-85
2022/07/24 00:07:51;;;;;;;7.53;6.70;;;16.60;99.90;;;;;;5095659;28;20392;-85
2022/07/24 00:10:17;;;;;;;7.47;6.75;;;16.60;99.90;;;;;;5096228;28;20521;-85
2022/07/24 00:12:42;;;;;;;7.43;6.45;;;16.60;99.90;;;;;;5077875;28;20048;-85
2022/07/24 00:15:09;;;;;;;9.05;6.68;;;16.50;99.90;;;;;;5095770;28;20052;-84
2022/07/24 00:17:34;;;;;;;8.88;6.90;;;16.50;99.90;;;;;;5077468;28;20541;-86
2022/07/24 00:20:00;;;;;;;8.43;7.00;;;16.50;99.90;;;;;;5077770;28;20039;-85
2022/07/24 00:22:26;;;;;;;7.60;6.82;;;16.50;99.90;;;;;;5095587;28;20056;-86
2022/07/24 00:24:51;;;;;;;9.68;7.15;;;16.50;99.90;;;;;;5077453;28;20138;-86
2022/07/24 00:27:17;;;;;;;10.05;6.80;;;16.40;99.90;;;;;;5096042;28;20036;-85
2022/07/24 00:29:43;;;;;;;7.80;7.03;;;16.40;99.90;;;;;;5095751;28;20043;-85
2022/07/24 00:32:08;;;;;;;7.00;6.30;;;16.50;99.90;;;;;;5077626;28;20056;-88
2022/07/24 00:34:34;;;;;;;7.82;7.03;;;16.40;99.90;;;;;;5095791;28;20361;-85
2022/07/24 00:37:00;;;;;;;7.40;6.70;;;16.30;99.90;;;;;;5077610;28;20097;-86
2022/07/24 00:43:06;;;;;;;8.33;6.77;;;16.30;99.90;;;;;;5095251;28;20055;-86
2022/07/24 00:45:32;;;;;;;8.52;6.85;;;16.30;99.90;;;;;;5077519;28;20060;-85
2022/07/24 00:47:58;;;;;;;8.38;6.65;;;16.30;99.90;;;;;;5060450;28;20044;-85
2022/07/24 00:50:25;;;;;;;7.75;6.97;;;16.20;99.90;;;;;;5060780;28;20055;-85
2022/07/24 00:52:51;;;;;;;7.55;6.85;;;16.30;99.90;;;;;;5095353;28;20113;-85
2022/07/24 00:55:17;;;;;;;7.90;6.65;;;16.30;99.90;;;;;;5094817;28;20048;-87
2022/07/24 00:57:45;;;;;;;7.53;6.63;;;16.20;99.90;;;;;;5094865;28;20044;-85
2022/07/24 01:00:12;;;;;;;8.65;6.32;;;16.20;99.90;;;;;;5077063;28;20052;-86
2022/07/24 01:02:42;;;;;;;7.50;6.70;;;16.20;99.90;;;;;;5076950;28;20067;-85
2022/07/24 01:05:11;;;;;;;8.20;6.80;;;16.20;99.90;;;;;;5076815;28;20043;-85
2022/07/24 01:07:37;;;;;;;7.70;6.15;;;16.10;99.90;;;;;;5093866;28;20044;-86
2022/07/24 01:10:03;;;;;;;9.38;6.22;;;16.10;99.90;;;;;;5095019;28;20048;-85
2022/07/24 01:12:32;;;;;;;6.97;5.80;;;16.10;99.90;;;;;;5077242;28;20127;-86
2022/07/24 01:14:58;;;;;;;7.53;5.97;;;16.20;99.90;;;;;;5076450;28;20428;-86
2022/07/24 01:17:24;;;;;;;8.70;6.50;;;16.10;99.90;;;;;;5077693;28;20044;-85
2022/07/24 01:19:50;;;;;;;7.53;6.22;;;16.10;99.90;;;;;;5094160;28;20375;-85
2022/07/24 01:22:15;;;;;;;7.88;6.25;;;16.10;99.90;;;;;;5094928;28;20048;-88
2022/07/24 01:24:41;;;;;;;8.98;6.78;;;16.10;99.90;;;;;;5094915;28;20070;-85
2022/07/24 01:27:07;;;;;;;9.05;6.30;;;16.20;99.90;;;;;;5076437;28;20052;-82
2022/07/24 01:29:34;;;;;;;6.47;5.75;;;16.10;99.90;;;;;;5076560;28;20075;-86
2022/07/24 01:31:59;;;;;;;7.53;6.50;;;16.10;99.90;;;;;;5076193;28;20424;-85
2022/07/24 01:34:25;;;;;;;8.57;6.32;;;16.10;99.90;;;;;;5076738;28;20060;-84
2022/07/24 01:36:51;;;;;;;7.10;6.40;;;16.10;99.90;;;;;;5060451;28;20090;-85
2022/07/24 01:39:16;;;;;;;6.90;6.20;;;16.10;99.90;;;;;;5094625;28;20066;-86
2022/07/24 01:41:42;;;;;;;7.32;6.50;;;16.10;99.90;;;;;;5076709;28;20055;-85
2022/07/24 01:44:08;;;;;;;7.13;6.43;;;16.20;99.90;;;;;;5076212;28;20397;-85
2022/07/24 01:46:33;;;;;;;10.35;6.82;;;16.10;99.90;;;;;;5094276;28;20048;-86
2022/07/24 01:48:59;;;;;;;8.85;6.57;;;16.10;99.90;;;;;;5059016;28;20052;-86
2022/07/24 01:51:25;;;;;;;7.18;6.32;;;16.10;99.90;;;;;;5093840;28;20047;-86
2022/07/24 01:53:50;;;;;;;9.30;7.00;;;16.20;99.90;;;;;;5091948;28;20047;-84
2022/07/24 01:56:16;;;;;;;8.35;6.22;;;16.10;99.90;;;;;;5094130;28;20477;-86
2022/07/24 01:58:42;;;;;;;9.68;6.72;;;16.10;99.90;;;;;;5094325;28;20044;-85
2022/07/24 02:01:07;;;;;;;8.55;6.05;;;16.10;99.90;;;;;;5076826;28;20062;-84
2022/07/24 02:03:33;;;;;;;7.18;6.43;;;16.10;99.90;;;;;;5094427;28;20044;-86
2022/07/24 02:06:02;;;;;;;6.90;6.25;;;16.00;99.90;;;;;;5076320;28;20490;-84
2022/07/24 02:08:27;;;;;;;8.77;6.50;;;16.00;99.90;;;;;;5076179;28;20385;-85
2022/07/24 02:10:56;;;;;;;8.48;6.47;;;16.00;99.90;;;;;;5093866;28;20056;-85
2022/07/24 02:13:22;;;;;;;9.52;6.60;;;16.00;99.90;;;;;;5076137;28;20404;-86
2022/07/24 02:15:47;;;;;;;8.10;6.65;;;15.90;99.90;;;;;;5094034;28;20130;-85
2022/07/24 02:18:21;;;;;;;7.53;6.82;;;15.90;99.90;;;;;;5093957;28;20050;-86
2022/07/24 02:20:46;;;;;;;8.10;6.80;;;15.80;99.90;;;;;;5076170;28;20058;-86
2022/07/24 02:23:17;;;;;;;8.50;6.65;;;15.90;99.90;;;;;;5093912;28;20130;-86
2022/07/24 02:25:44;;;;;;;6.95;6.25;;;15.80;99.90;;;;;;5076322;28;20451;-86
2022/07/24 02:28:11;;;;;;;10.55;6.75;;;15.90;99.90;;;;;;5093547;28;20078;-86
2022/07/24 02:30:37;;;;;;;11.18;5.65;;;16.00;99.90;;;;;;5076231;28;20044;-85
2022/07/24 02:33:03;;;;;;;85.60;46.15;;;15.80;99.90;;;;;;5076350;28;20051;-85
2022/07/24 02:35:32;;;;;;;11.10;7.15;;;15.90;99.90;;;;;;5076785;28;20036;-85
2022/07/24 02:37:57;;;;;;;8.98;6.82;;;15.80;99.90;;;;;;5076137;28;20070;-86
2022/07/24 02:40:23;;;;;;;7.82;7.00;;;15.80;99.90;;;;;;5076173;28;20056;-86
2022/07/24 02:42:49;;;;;;;7.90;7.10;;;15.70;99.90;;;;;;5076675;28;20052;-86
2022/07/24 02:45:15;;;;;;;7.70;6.95;;;15.70;99.90;;;;;;5093397;28;20048;-85
2022/07/24 02:47:50;;;;;;;8.25;7.28;;;15.70;99.90;;;;;;5093478;28;20044;-85
2022/07/24 02:50:17;;;;;;;8.80;7.45;;;15.70;99.90;;;;;;5075140;28;20052;-85
2022/07/24 02:52:42;;;;;;;8.57;7.47;;;15.70;99.90;;;;;;5075809;28;20112;-82
2022/07/24 02:55:09;;;;;;;11.65;7.63;;;15.60;99.90;;;;;;5075287;28;20482;-86
2022/07/24 02:57:35;;;;;;;9.85;7.63;;;15.60;99.90;;;;;;5075974;28;20056;-84
2022/07/24 03:00:02;;;;;;;9.18;7.55;;;15.60;99.90;;;;;;5093543;28;20084;-85
2022/07/24 03:02:28;;;;;;;8.05;6.72;;;15.60;99.90;;;;;;5075596;28;20424;-85
2022/07/24 03:04:53;;;;;;;8.45;6.97;;;15.60;99.90;;;;;;5075668;28;20036;-85
2022/07/24 03:07:19;;;;;;;9.85;7.60;;;15.50;99.90;;;;;;5075063;28;20040;-85
2022/07/24 03:10:08;;;;;;;8.85;7.95;;;15.50;99.90;;;;;;5075607;28;20063;-85
2022/07/24 03:12:34;;;;;;;9.18;8.23;;;15.50;99.90;;;;;;5075384;28;20401;-85
2022/07/24 03:15:00;;;;;;;8.82;7.45;;;15.50;99.90;;;;;;5075616;28;20051;-84
2022/07/24 03:17:26;;;;;;;8.35;7.55;;;15.50;99.90;;;;;;5093260;28;20048;-85
2022/07/24 03:19:51;;;;;;;10.20;7.70;;;15.40;99.90;;;;;;5075335;28;20065;-85
2022/07/24 03:22:17;;;;;;;8.40;7.60;;;15.40;99.90;;;;;;5093324;28;20052;-85
2022/07/24 03:24:43;;;;;;;9.43;7.63;;;15.30;99.90;;;;;;5092840;28;20370;-84
2022/07/24 03:27:08;;;;;;;10.45;7.80;;;15.40;99.90;;;;;;5074965;28;20544;-85
2022/07/24 03:29:34;;;;;;;10.77;7.85;;;15.30;99.90;;;;;;5075098;28;20201;-84
2022/07/24 03:32:00;;;;;;;10.32;8.10;;;15.40;99.90;;;;;;5078612;28;20058;-86
2022/07/24 03:34:25;;;;;;;9.15;8.13;;;15.40;99.90;;;;;;5096773;28;20048;-86
2022/07/24 03:36:51;;;;;;;9.05;8.13;;;15.40;99.90;;;;;;5096682;28;20135;-85
2022/07/24 03:39:35;;;;;;;8.55;6.55;;;15.30;99.90;;;;;;5096678;28;20451;-86
2022/07/24 03:42:00;;;;;;;9.75;8.35;;;15.50;99.90;;;;;;5096504;28;20044;-86
2022/07/24 03:44:26;;;;;;;10.10;7.72;;;15.50;99.90;;;;;;5096915;28;20048;-85
2022/07/24 03:46:52;;;;;;;9.05;6.70;;;15.50;99.90;;;;;;5062112;28;20051;-85
2022/07/24 03:49:17;;;;;;;11.27;8.30;;;15.50;99.90;;;;;;5078911;28;20100;-84
2022/07/24 03:51:43;;;;;;;13.50;8.30;;;15.60;99.90;;;;;;5096641;28;20051;-83
2022/07/24 03:54:09;;;;;;;11.63;8.40;;;15.60;99.90;;;;;;5078088;28;20047;-84
2022/07/24 03:56:34;;;;;;;10.27;7.55;;;15.70;99.90;;;;;;5096553;28;20122;-85
2022/07/24 03:59:00;;;;;;;8.32;7.53;;;15.80;99.90;;;;;;5096444;28;20044;-83
2022/07/24 04:01:26;;;;;;;13.77;8.13;;;15.70;99.90;;;;;;5095923;28;20089;-84
2022/07/24 04:03:51;;;;;;;8.98;7.28;;;15.70;99.90;;;;;;5078244;28;20432;-85
2022/07/24 04:06:17;;;;;;;8.48;7.50;;;15.80;99.90;;;;;;5078061;28;20461;-85
2022/07/24 04:08:43;;;;;;;9.25;7.38;;;15.80;99.90;;;;;;5096122;28;20044;-83
2022/07/24 04:11:08;;;;;;;8.57;7.38;;;15.80;99.90;;;;;;5078272;28;20189;-85
2022/07/24 04:13:34;;;;;;;8.52;7.63;;;15.80;99.90;;;;;;5096173;28;20509;-85
2022/07/24 04:16:00;;;;;;;10.23;8.18;;;15.80;99.90;;;;;;5096021;28;20054;-85
2022/07/24 04:18:26;;;;;;;8.75;7.68;;;15.80;99.90;;;;;;5078517;28;20056;-84
2022/07/24 04:20:52;;;;;;;10.10;8.02;;;15.90;99.90;;;;;;5096329;28;20500;-83
2022/07/24 04:23:17;;;;;;;10.35;7.78;;;15.80;99.90;;;;;;5077342;28;20508;-86
2022/07/24 04:25:43;;;;;;;10.20;8.10;;;15.80;99.90;;;;;;5095954;28;20044;-84
2022/07/24 04:28:08;;;;;;;9.02;7.80;;;15.90;99.90;;;;;;5096272;28;20423;-86
2022/07/24 04:30:35;;;;;;;8.68;7.78;;;15.80;99.90;;;;;;5095896;28;20400;-85
2022/07/24 04:33:01;;;;;;;8.23;7.43;;;15.80;99.90;;;;;;5060568;28;20044;-85
2022/07/24 04:35:26;;;;;;;11.93;7.90;;;15.80;99.90;;;;;;5095587;28;20051;-85
2022/07/24 04:41:34;;;;;;;8.50;7.22;;;15.90;99.90;;;;;;5095487;28;20081;-85
2022/07/24 04:43:59;;;;;;;11.82;7.68;;;15.90;99.90;;;;;;5095653;28;20048;-85
2022/07/24 04:46:25;;;;;;;7.63;6.88;;;15.80;99.90;;;;;;5095544;28;20169;-84
2022/07/24 04:48:51;;;;;;;10.05;6.80;;;15.90;99.90;;;;;;5077741;28;20062;-85
2022/07/24 04:51:16;;;;;;;9.27;7.70;;;15.90;99.90;;;;;;5095649;28;20393;-85
2022/07/24 04:53:42;;;;;;;8.90;7.75;;;15.90;99.90;;;;;;5077011;28;20051;-85
2022/07/24 04:56:08;;;;;;;10.32;8.45;;;15.90;99.90;;;;;;5077552;28;20055;-84
2022/07/24 04:58:34;;;;;;;9.15;7.75;;;15.90;99.90;;;;;;5095025;28;20097;-85
2022/07/24 05:01:00;;;;;;;10.05;8.30;;;16.00;99.90;;;;;;5095412;28;20079;-84
2022/07/24 05:03:25;;;;;;;12.95;8.57;;;15.90;99.90;;;;;;5077143;28;20054;-84
2022/07/24 05:05:51;;;;;;;9.50;8.50;;;15.90;99.90;;;;;;5060248;28;20063;-85
2022/07/24 05:08:16;;;;;;;13.18;9.02;;;15.90;99.90;;;;;;5095182;28;20044;-84
2022/07/24 05:10:42;;;;;;;10.43;8.25;;;15.90;99.90;;;;;;5094640;28;20484;-85
2022/07/24 05:13:08;;;;;;;9.82;8.82;;;15.90;99.90;;;;;;5060284;28;20105;-85
2022/07/24 05:15:33;;;;;;;10.55;8.60;;;15.90;99.90;;;;;;5077123;28;20097;-84
2022/07/24 05:17:59;;;;;;;13.27;9.45;;;16.00;99.90;;;;;;5076634;28;20055;-84
2022/07/24 05:20:25;;;;;;;13.07;9.30;;;16.00;99.90;;;;;;5094630;28;20423;-87
2022/07/24 05:22:58;;;;;;;10.13;8.98;;;16.10;99.90;;;;;;5076238;28;20055;-83
2022/07/24 05:25:23;;;;;;;10.90;9.10;;;16.20;99.90;;;;;;5094127;28;20048;-85
2022/07/24 05:27:49;;;;;;;13.13;9.70;;;16.30;99.90;;;;;;5094614;28;20182;-85
2022/07/24 05:30:15;;;;;;;10.77;9.65;;;16.30;99.90;;;;;;5094463;28;20067;-85
2022/07/24 05:32:40;;;;;;;11.70;9.68;;;16.40;99.90;;;;;;5094647;28;20044;-84
2022/07/24 05:35:07;;;;;;;11.65;9.70;;;16.50;99.90;;;;;;5076222;28;20497;-84
2022/07/24 05:37:32;;;;;;;12.45;9.82;;;16.50;99.90;;;;;;5094111;28;20040;-84
2022/07/24 05:39:58;;;;;;;15.05;9.70;;;16.50;99.90;;;;;;5094601;28;20040;-85
2022/07/24 05:42:24;;;;;;;12.82;10.02;;;16.50;99.90;;;;;;5094325;28;20048;-85
2022/07/24 05:44:49;;;;;;;15.20;9.60;;;16.50;99.90;;;;;;5094476;28;20051;-85
2022/07/24 05:47:15;;;;;;;12.50;10.68;;;16.50;99.90;;;;;;5093926;28;20136;-85
2022/07/24 05:49:41;;;;;;;14.20;9.95;;;16.60;99.90;;;;;;5059058;28;20508;-84
2022/07/24 05:52:06;;;;;;;11.70;9.48;;;16.70;99.90;;;;;;5093808;28;20052;-85
2022/07/24 05:54:32;;;;;;;14.77;10.57;;;16.80;99.90;;;;;;5093541;28;20047;-84
2022/07/24 05:56:57;;;;;;;11.70;10.30;;;16.90;99.90;;;;;;5094005;28;20518;-84
2022/07/24 05:59:23;;;;;;;12.23;10.00;;;17.00;99.90;;;;;;5094152;28;20047;-85
2022/07/24 06:01:49;;;;;;;12.63;10.25;;;17.10;99.90;;;;;;5076300;28;20087;-83
2022/07/24 06:04:14;;;;;;;12.70;10.27;;;17.30;99.90;;;;;;5093348;28;20468;-84
2022/07/24 06:06:40;;;;;;;12.60;10.07;;;17.40;99.90;;;;;;5093893;28;20134;-84
2022/07/24 06:09:06;;;;;;;12.75;10.65;;;17.50;99.90;;;;;;5093660;28;20084;-84
2022/07/24 06:11:31;;;;;;;13.18;10.73;;;17.60;99.90;;;;;;5094009;28;20147;-83
2022/07/24 06:13:57;;;;;;;13.15;11.25;;;17.70;99.90;;;;;;5093562;28;20052;-84
2022/07/24 06:16:23;;;;;;;13.38;10.80;;;17.80;99.90;;;;;;5075346;28;20101;-84
2022/07/24 06:18:49;;;;;;;13.57;10.32;;;18.00;99.90;;;;;;5093593;28;20052;-85
2022/07/24 06:21:14;;;;;;;12.48;10.95;;;18.10;99.90;;;;;;5093962;28;20047;-83
2022/07/24 06:23:40;;;;;;;14.45;10.88;;;18.20;99.90;;;;;;5093164;28;20044;-83
2022/07/24 06:26:05;;;;;;;15.25;11.23;;;18.40;99.90;;;;;;5093449;28;20441;-84
2022/07/24 06:28:31;;;;;;;12.68;11.27;;;18.50;99.90;;;;;;5075380;28;20066;-83
2022/07/24 06:30:57;;;;;;;14.73;11.73;;;18.60;99.90;;;;;;5093481;28;20063;-84
2022/07/24 06:33:23;;;;;;;13.80;11.52;;;18.60;99.90;;;;;;5059035;28;20058;-84
2022/07/24 06:35:48;;;;;;;15.80;11.70;;;18.80;99.90;;;;;;5111003;28;20054;-83
2022/07/24 06:38:16;;;;;;;12.63;11.23;;;18.90;99.90;;;;;;5095068;28;20043;-84
2022/07/24 06:40:42;;;;;;;13.93;12.43;;;19.00;99.90;;;;;;5096213;28;20054;-84
2022/07/24 06:43:07;;;;;;;17.10;12.15;;;19.10;99.90;;;;;;5114250;28;20370;-85
2022/07/24 06:45:33;;;;;;;16.33;11.60;;;19.30;99.90;;;;;;5114290;28;20069;-84
2022/07/24 06:48:02;;;;;;;16.50;13.32;;;19.50;99.90;;;;;;5114201;28;20051;-84
2022/07/24 06:50:28;;;;;;;15.18;12.25;;;19.60;99.90;;;;;;5095698;28;20055;-84
2022/07/24 06:52:54;;;;;;;17.00;12.60;;;19.80;99.90;;;;;;5114065;28;20092;-84
2022/07/24 06:55:20;;;;;;;18.02;13.25;;;20.10;99.90;;;;;;5113803;28;20122;-83
2022/07/24 06:57:46;;;;;;;17.92;13.55;;;20.30;99.90;;;;;;5096425;28;20435;-88
2022/07/24 07:00:12;;;;;;;15.60;13.68;;;20.40;99.90;;;;;;5115559;28;20063;-82
2022/07/24 07:02:38;;;;;;;19.70;12.90;;;20.50;99.90;;;;;;5103371;28;20055;-83
2022/07/24 07:05:08;;;;;;;16.70;13.02;;;20.60;99.90;;;;;;5096681;28;20055;-84
2022/07/24 07:07:36;;;;;;;17.92;14.30;;;20.60;99.90;;;;;;5120125;28;20043;-84
2022/07/24 07:10:02;;;;;;;17.55;14.10;;;20.70;99.90;;;;;;5119422;28;20051;-84
2022/07/24 07:12:28;;;;;;;18.02;13.07;;;20.80;99.90;;;;;;5118777;28;20434;-82
2022/07/24 07:14:53;;;;;;;15.32;12.57;;;20.90;99.90;;;;;;5099990;28;20055;-85
2022/07/24 07:17:19;;;;;;;14.43;11.95;;;21.00;99.90;;;;;;5095488;28;20089;-85
2022/07/24 07:19:45;;;;;;;13.88;12.02;;;21.30;99.90;;;;;;5117780;28;20366;-84
2022/07/24 07:22:11;;;;;;;15.38;11.23;;;21.60;99.90;;;;;;5098940;28;20043;-84
2022/07/24 07:24:37;;;;;;;14.85;10.88;;;21.90;99.90;;;;;;5117343;28;20044;-83
2022/07/24 07:27:02;;;;;;;11.75;10.32;;;22.20;99.90;;;;;;5098971;28;20413;-82
2022/07/24 07:29:28;;;;;;;13.95;10.10;;;22.60;99.90;;;;;;5092107;28;20070;-82
2022/07/24 07:31:54;;;;;;;11.93;9.30;;;22.90;99.90;;;;;;5100863;28;20392;-84
2022/07/24 07:34:20;;;;;;;11.82;9.20;;;23.10;99.90;;;;;;5081239;28;20432;-83
2022/07/24 07:36:46;;;;;;;12.85;8.68;;;23.20;99.90;;;;;;5117062;28;20049;-82
2022/07/24 07:39:12;;;;;;;10.82;8.23;;;23.20;99.90;;;;;;5098889;28;20387;-85
2022/07/24 07:41:38;;;;;;;10.10;7.40;;;23.50;99.90;;;;;;5097876;28;20055;-83
2022/07/24 07:44:04;;;;;;;11.75;6.80;;;23.90;99.90;;;;;;5116858;28;20075;-83
2022/07/24 07:46:30;;;;;;;9.98;7.30;;;24.40;99.90;;;;;;5097879;28;20408;-84
2022/07/24 07:48:55;;;;;;;8.15;6.60;;;24.70;99.00;;;;;;5116880;28;20441;-84
2022/07/24 07:51:21;;;;;;;10.88;6.28;;;25.00;96.30;;;;;;5117586;28;20078;-84
2022/07/24 07:53:47;;;;;;;8.20;5.63;;;25.50;95.80;;;;;;5098763;28;20043;-85
2022/07/24 07:56:13;;;;;;;7.03;5.70;;;26.10;85.70;;;;;;5098907;28;20056;-82
2022/07/24 07:58:38;;;;;;;7.38;5.32;;;26.70;77.30;;;;;;5117089;28;20093;-85
2022/07/24 08:01:04;;;;;;;7.10;4.78;;;26.90;72.70;;;;;;5098737;28;20125;-85
2022/07/24 08:03:30;;;;;;;6.85;4.03;;;27.20;72.50;;;;;;5116424;28;20054;-84
2022/07/24 08:05:55;;;;;;;5.20;4.20;;;27.40;71.60;;;;;;5116780;28;20047;-84
2022/07/24 08:08:46;;;;;;;4.68;4.10;;;27.70;66.00;;;;;;5116966;28;20112;-86
2022/07/24 08:11:12;;;;;;;4.88;4.00;;;27.90;71.00;;;;;;5116779;28;20418;-86
2022/07/24 08:13:38;;;;;;;4.57;3.90;;;28.40;64.70;;;;;;5116848;28;20130;-85
2022/07/24 08:16:06;;;;;;;5.55;4.65;;;28.60;62.60;;;;;;5098843;28;20373;-86
2022/07/24 08:18:32;;;;;;;4.68;4.20;;;28.90;61.10;;;;;;5117841;28;20055;-86
2022/07/24 08:20:58;;;;;;;5.18;3.67;;;29.10;60.10;;;;;;5118299;28;20051;-86
2022/07/24 08:23:38;;;;;;;4.75;4.30;;;29.30;59.70;;;;;;5100068;28;20043;-85
2022/07/24 08:26:05;;;;;;;;;;;29.50;60.20;;;;;;5100647;28;20346;-85
2022/07/24 08:28:30;;;;;;;6.65;3.50;;;30.00;59.00;;;;;;5117529;28;20039;-86
2022/07/24 08:30:56;;;;;;;4.45;3.25;;;30.50;58.00;;;;;;5117706;28;20472;-86
2022/07/24 08:33:22;;;;;;;4.88;3.35;;;31.00;55.80;;;;;;5098987;28;20176;-86
2022/07/24 08:35:49;;;;;;;4.72;3.78;;;31.40;54.40;;;;;;5081963;28;20115;-86
2022/07/24 08:41:56;;;;;;;4.38;3.30;;;30.10;56.90;;;;;;5117685;28;20031;-86
2022/07/24 08:44:22;;;;;;;4.57;3.10;;;30.50;55.90;;;;;;5098017;28;20050;-84
2022/07/24 08:46:52;;;;;;;3.83;2.58;;;30.80;55.40;;;;;;5115810;28;20047;-86
2022/07/24 08:49:20;;;;;;;2.83;2.10;;;30.90;54.40;;;;;;5117287;28;20087;-85
2022/07/24 08:51:48;;;;;;;3.40;2.00;;;30.90;54.10;;;;;;5099313;28;20101;-85
2022/07/24 08:54:14;;;;;;;3.10;1.83;;;31.00;53.80;;;;;;5081653;28;20051;-85
2022/07/24 08:56:40;;;;;;;5.20;2.20;;;31.30;52.40;;;;;;5098695;28;20048;-87
2022/07/24 08:59:17;;;;;;;2.05;1.77;;;31.10;51.70;;;;;;5081590;28;20484;-82
2022/07/24 09:01:42;;;;;;;3.33;1.73;;;31.20;51.70;;;;;;5098943;28;20051;-85
2022/07/24 09:04:38;;;;;;;3.08;1.92;;;31.60;50.80;;;;;;5100998;28;20051;-83
2022/07/24 09:07:10;;;;;;;2.72;1.90;;;31.70;50.70;;;;;;5100116;28;20043;-87
2022/07/24 09:09:56;;;;;;;4.18;2.00;;;31.60;50.90;;;;;;5118050;28;20055;-85
2022/07/24 09:12:22;;;;;;;2.40;2.20;;;31.70;51.30;;;;;;5118168;28;20358;-87
2022/07/24 09:14:48;;;;;;;3.50;2.13;;;32.00;50.70;;;;;;5116155;28;20054;-86
2022/07/24 09:17:20;;;;;;;2.55;1.80;;;31.60;50.50;;;;;;5115888;28;20052;-84
2022/07/24 09:19:57;;;;;;;3.40;1.90;;;31.30;50.90;;;;;;5081508;28;20051;-85
2022/07/24 09:22:36;;;;;;;2.22;2.03;;;31.80;51.10;;;;;;5116253;28;20048;-85
2022/07/24 09:25:21;;;;;;;4.40;1.80;;;32.30;49.70;;;;;;5097476;28;20058;-86
2022/07/24 09:27:47;;;;;;;2.00;1.60;;;32.70;49.30;;;;;;5114542;28;20236;-84
2022/07/24 09:30:32;;;;;;;2.20;2.00;;;33.20;48.80;;;;;;5114801;28;20171;-86
2022/07/24 09:33:01;;;;;;;3.63;1.80;;;33.50;48.60;;;;;;5097488;28;20047;-83
2022/07/24 09:35:39;;;;;;;1.90;1.70;;;33.80;47.50;;;;;;5096810;28;20134;-84
2022/07/24 09:38:08;;;;;;;3.00;1.60;;;33.70;46.50;;;;;;5115272;28;20063;-85
2022/07/24 09:40:39;;;;;;;1.70;1.52;;;33.90;48.90;;;;;;5115677;28;20408;-85
2022/07/24 09:43:26;;;;;;;2.00;1.60;;;34.80;46.60;;;;;;5116418;28;20056;-85
2022/07/24 09:45:56;;;;;;;1.90;1.80;;;34.80;46.20;;;;;;5115296;28;20481;-86
2022/07/24 09:48:25;;;;;;;4.00;1.85;;;34.10;46.40;;;;;;5097512;28;20384;-84
2022/07/24 09:50:53;;;;;;;2.17;1.92;;;33.60;46.90;;;;;;5114991;28;20047;-84
2022/07/24 09:53:20;;;;;;;2.15;1.65;;;33.50;46.90;;;;;;5114529;28;20047;-85
2022/07/24 09:56:00;;;;;;;3.38;1.83;;;33.70;46.90;;;;;;5114840;28;20051;-85
2022/07/24 09:58:27;;;;;;;2.95;1.85;;;33.40;47.00;;;;;;5096943;28;20048;-85
2022/07/24 10:00:55;;;;;;;6.45;2.20;;;32.50;48.50;;;;;;5114825;28;20051;-85
2022/07/24 10:03:25;;;;;;;2.03;1.83;;;32.60;48.50;;;;;;5114356;28;20518;-86
2022/07/24 10:05:55;;;;;;;2.50;1.90;;;32.50;48.00;;;;;;5114801;28;20050;-87
2022/07/24 10:12:05;;;;;;;2.50;2.00;;;33.50;48.70;;;;;;5114412;28;20399;-89
2022/07/24 10:14:30;;;;;;;3.00;1.98;;;34.40;46.20;;;;;;5114389;28;20468;-87
2022/07/24 10:17:08;;;;;;;2.72;2.08;;;34.90;47.40;;;;;;5114392;28;20051;-85
2022/07/24 10:19:45;;;;;;;3.58;1.80;;;35.40;44.50;;;;;;5114565;28;20047;-85
2022/07/24 10:22:17;;;;;;;6.00;1.65;;;35.60;44.50;;;;;;5114665;28;20048;-85
2022/07/24 10:24:53;;;;;;;2.40;2.20;;;35.70;44.40;;;;;;5096480;28;20047;-87
2022/07/24 10:27:36;;;;;;;2.28;2.08;;;36.00;43.30;;;;;;5113581;28;20047;-87
2022/07/24 10:30:10;;;;;;;4.13;1.90;;;36.30;43.20;;;;;;5096051;28;20048;-87
2022/07/24 10:32:37;;;;;;;2.28;1.77;;;36.40;43.80;;;;;;5114330;28;20079;-86
2022/07/24 10:35:15;;;;;;;2.55;1.98;;;36.70;43.10;;;;;;5114313;28;20051;-87
2022/07/24 10:41:25;;;;;;;2.30;1.90;;;36.90;41.80;;;;;;5113988;28;20039;-83
2022/07/24 10:44:14;;;;;;;2.20;2.00;;;36.60;40.20;;;;;;5113733;28;20039;-86
2022/07/24 10:47:03;;;;;;;2.97;2.33;;;36.60;42.20;;;;;;5114072;28;20388;-86
2022/07/24 10:49:45;;;;;;;3.72;2.08;;;36.40;41.40;;;;;;5096250;28;20278;-86
2022/07/24 10:52:32;;;;;;;1.90;1.80;;;36.40;41.00;;;;;;5096171;28;20520;-83
2022/07/24 10:55:34;;;;;;;2.40;2.20;;;36.30;40.70;;;;;;5095787;28;20441;-85
2022/07/24 10:58:02;;;;;;;2.83;2.03;;;35.70;43.60;;;;;;5011190;28;20380;-86
2022/07/24 11:00:31;;;;;;;3.58;2.05;;;35.70;43.30;;;;;;5011105;28;20089;-85
2022/07/24 11:03:05;;;;;;;3.40;2.28;;;35.70;42.50;;;;;;4995308;28;20415;-85
2022/07/24 11:05:33;;;;;;;3.13;2.20;;;35.80;42.50;;;;;;5011426;28;20523;-85
2022/07/24 11:11:52;;;;;;;5.60;2.53;;;36.20;42.40;;;;;;4933416;29;20465;-90
2022/07/24 11:14:36;;;;;;;2.72;2.30;;;36.50;40.50;;;;;;4933555;29;20090;-85
2022/07/24 11:17:43;;;;;;;3.13;2.17;;;36.80;41.70;;;;;;4917202;29;20110;-85
2022/07/24 11:20:11;;;;;;;2.22;1.92;;;36.80;43.20;;;;;;4918786;29;20051;-85
2022/07/24 11:22:48;;;;;;;3.25;2.30;;;37.10;42.10;;;;;;4934008;29;20402;-86
2022/07/24 11:25:15;;;;;;;3.63;1.95;;;37.30;40.80;;;;;;4911234;29;20051;-84
2022/07/24 11:27:46;;;;;;;4.18;2.33;;;37.40;41.20;;;;;;4934542;29;20056;-86
2022/07/24 11:30:12;;;;;;;4.47;2.35;;;37.10;40.20;;;;;;4934495;29;20481;-83
2022/07/24 11:32:40;;;;;;;4.70;2.10;;;36.80;40.60;;;;;;4918889;29;20172;-85
2022/07/24 11:35:08;;;;;;;2.80;2.42;;;36.90;41.60;;;;;;4987474;28;20053;-83
2022/07/24 11:37:35;;;;;;;6.88;2.42;;;37.10;41.20;;;;;;4978157;28;20058;-85
2022/07/24 11:40:03;;;;;;;3.67;2.22;;;37.00;40.50;;;;;;5010894;28;20065;-86
2022/07/24 11:42:28;;;;;;;2.78;2.00;;;37.10;41.10;;;;;;5072239;28;20135;-84
2022/07/24 11:44:54;;;;;;;3.85;2.40;;;37.20;40.40;;;;;;5113411;28;20134;-85
2022/07/24 11:47:26;;;;;;;4.55;2.78;;;37.40;41.10;;;;;;5095007;28;20134;-85
2022/07/24 11:49:59;;;;;;;4.15;2.03;;;37.50;40.90;;;;;;5094200;28;20480;-85
2022/07/24 11:52:26;;;;;;;6.05;2.63;;;37.60;40.90;;;;;;5097803;28;20100;-85
2022/07/24 11:54:57;;;;;;;6.40;2.30;;;37.80;41.80;;;;;;5098593;28;20050;-82
2022/07/24 11:57:30;;;;;;;2.22;2.08;;;38.10;40.70;;;;;;5117073;28;20051;-84
2022/07/24 11:59:56;;;;;;;2.63;2.00;;;38.10;39.80;;;;;;5116613;28;20072;-83
2022/07/24 12:02:22;;;;;;;4.28;2.30;;;38.10;39.80;;;;;;5098109;28;20135;-86
2022/07/24 12:04:49;;;;;;;3.13;2.13;;;37.80;39.50;;;;;;5098660;28;20111;-85
2022/07/24 12:07:19;;;;;;;2.88;2.15;;;37.60;41.70;;;;;;5098400;28;20058;-86
2022/07/24 12:09:51;;;;;;;6.57;2.30;;;37.90;41.70;;;;;;5116314;28;20066;-86
2022/07/24 12:12:34;;;;;;;2.38;2.00;;;38.10;40.80;;;;;;5098900;28;20049;-85
2022/07/24 12:15:07;;;;;;;2.55;2.30;;;37.90;39.50;;;;;;5116344;28;20044;-86
2022/07/24 12:17:51;;;;;;;4.43;2.55;;;37.50;40.90;;;;;;5098030;28;20055;-86
2022/07/24 12:20:21;;;;;;;5.25;2.30;;;37.40;41.80;;;;;;5116427;28;20051;-84
2022/07/24 12:22:47;;;;;;;2.75;2.10;;;37.20;40.40;;;;;;5098242;28;20157;-91
2022/07/24 12:25:14;;;;;;;2.33;2.10;;;36.90;40.20;;;;;;5116038;28;20095;-86
2022/07/24 12:27:45;;;;;;;2.67;1.90;;;36.80;39.40;;;;;;5098738;28;20075;-85
2022/07/24 12:30:32;;;;;;;2.53;2.10;;;36.70;40.70;;;;;;5098633;28;20125;-86
2022/07/24 12:33:01;;;;;;;2.47;2.20;;;36.80;39.90;;;;;;5116520;28;20043;-86
2022/07/24 12:35:29;;;;;;;2.47;1.70;;;37.00;39.50;;;;;;5098417;28;20050;-84
2022/07/24 12:37:56;;;;;;;2.97;2.10;;;37.20;38.20;;;;;;5081615;28;20510;-87
2022/07/24 12:40:24;;;;;;;3.40;2.00;;;37.40;38.30;;;;;;5099237;28;20047;-84
2022/07/24 12:43:10;;;;;;;3.08;2.17;;;37.60;38.80;;;;;;5116810;28;20044;-86
2022/07/24 12:45:37;;;;;;;4.25;2.22;;;37.60;38.40;;;;;;5116702;28;20389;-85
2022/07/24 12:48:06;;;;;;;2.20;2.00;;;37.70;38.80;;;;;;5081581;28;20048;-84
2022/07/24 12:50:32;;;;;;;7.63;2.08;;;37.50;38.50;;;;;;5116340;28;20388;-85
2022/07/24 12:53:08;;;;;;;3.78;1.98;;;36.50;39.70;;;;;;5098231;28;20040;-85
2022/07/24 12:55:35;;;;;;;2.33;2.00;;;35.60;41.20;;;;;;5115483;28;20397;-85
2022/07/24 12:58:03;;;;;;;2.63;1.85;;;35.00;41.60;;;;;;5115492;28;20122;-85
2022/07/24 13:00:29;;;;;;;2.85;2.10;;;34.30;42.10;;;;;;5115228;28;20093;-90
2022/07/24 13:02:55;;;;;;;2.53;2.13;;;33.50;42.40;;;;;;5096057;28;20055;-85
2022/07/24 13:05:41;;;;;;;5.43;2.20;;;33.00;43.80;;;;;;5115442;28;20134;-84
2022/07/24 13:08:07;;;;;;;2.95;2.50;;;32.60;44.60;;;;;;5115100;28;20044;-85
2022/07/24 13:10:34;;;;;;;3.95;2.50;;;32.40;45.40;;;;;;5114937;28;20051;-85